Minerva Virgo — SXXT — position and weather

sailwx.info

Track history (hours):
 
Tides and Currents Weather Stations Pressure Air Temp Water Temp Dewpoint Dewpoint Depression Visibility Wind Speed Wind Dir Waves Ship Positions

Minerva Virgo

Last reported at 2017-Mar-20 06:29 UTC. Time now 2017-Mar-23 12:26 UTC.
Position N 07°31' W 015°07'.

Length 182 m; draft 11.2 m.

Type: Ship (hazmat cat C). MMSI: 240730000.

Date/timePositionNaut miles runAvg speedWind from/ knotsBaromVisibWave heightAir tempDewpointWater temp
2017-Mar-20 06:29N 07°31' W 015°07'14413.1
2017-Mar-19 19:33N 09°13' W 016°49'1313.0
2017-Mar-19 18:33N 09°22' W 016°58'1312.8
2017-Mar-19 17:33N 09°31' W 017°07'1312.9
2017-Mar-19 16:33N 09°41' W 017°17'  
2017-Mar-16 00:24N 27°26' W 015°22'1514.1
2017-Mar-15 23:20N 27°40' W 015°15'1113.6
2017-Mar-15 22:33N 27°50' W 015°13'1414.0
2017-Mar-15 21:33N 28°03' W 015°19'4 3.7
2017-Mar-15 20:33N 28°07' W 015°21'1 1.1
2017-Mar-15 19:33N 28°08' W 015°21'1010.3
2017-Mar-15 18:33N 28°18' W 015°18'1313.3
2017-Mar-15 17:33N 28°31' W 015°15'1313.1
2017-Mar-15 16:33N 28°43' W 015°11'1313.4
2017-Mar-15 15:33N 28°56' W 015°07'  
2017-Mar-11 14:10N 48°32' W 006°06'711.0
2017-Mar-11 13:33N 48°38' W 006°01'1211.4
2017-Mar-11 12:31N 48°49' W 005°52'1212.0
2017-Mar-11 11:33N 48°57' W 005°40'1512.7
2017-Mar-11 10:22N 49°05' W 005°21'911.2
2017-Mar-11 09:33N 49°09' W 005°08'1514.4
2017-Mar-11 08:29N 49°17' W 004°48'1413.8
2017-Mar-11 07:29N 49°23' W 004°29'2612.4
2017-Mar-11 05:25N 49°36' W 003°55'1011.6
2017-Mar-11 04:33N 49°41' W 003°41'1212.0
2017-Mar-11 03:33N 49°47' W 003°25'1312.9
2017-Mar-11 02:33N 49°53' W 003°08'1414.1
2017-Mar-11 01:34N 49°60' W 002°49'1715.7
2017-Mar-11 00:28N 50°04' W 002°23'1516.1
2017-Mar-10 23:33N 50°08' W 002°01'1515.0
2017-Mar-10 22:32N 50°12' W 001°38'1313.4
2017-Mar-10 21:33N 50°15' W 001°18'1311.6
2017-Mar-10 20:25N 50°19' W 000°58'1010.4
2017-Mar-10 19:26N 50°21' W 000°42'2110.9
2017-Mar-10 17:32N 50°28' W 000°11'1312.7
2017-Mar-10 16:31N 50°31' E 000°08'1414.1
2017-Mar-10 15:33N 50°35' E 000°28'1414.2
2017-Mar-10 14:33N 50°43' E 000°48'1413.8
2017-Mar-10 13:31N 50°51' E 001°06'1412.5
2017-Mar-10 12:24N 51°01' E 001°22'911.1
2017-Mar-10 11:33N 51°07' E 001°33'1110.7
2017-Mar-10 10:33N 51°14' E 001°46'1111.5
2017-Mar-10 09:33N 51°24' E 001°54'1212.0
2017-Mar-10 08:33N 51°34' E 002°06'1414.0
2017-Mar-10 07:33N 51°44' E 002°21'  
Track history (hours):
 
Tides and Currents Weather Stations Pressure Air Temp Water Temp Dewpoint Dewpoint Depression Visibility Wind Speed Wind Dir Waves Ship Positions

Minerva Virgo

Last reported at 2017-Mar-20 06:29 UTC. Time now 2017-Mar-23 12:26 UTC.
Position N 07°31' W 015°07'.

Length 182 m; draft 11.2 m.

Type: Ship (hazmat cat C). MMSI: 240730000.

Date/timePositionNaut miles runAvg speedWind from/ knotsBaromVisibWave heightAir tempDewpointWater temp
2017-Mar-20 06:29N 07°31' W 015°07'14413.1
2017-Mar-19 19:33N 09°13' W 016°49'1313.0
2017-Mar-19 18:33N 09°22' W 016°58'1312.8
2017-Mar-19 17:33N 09°31' W 017°07'1312.9
2017-Mar-19 16:33N 09°41' W 017°17'  
2017-Mar-16 00:24N 27°26' W 015°22'1514.1
2017-Mar-15 23:20N 27°40' W 015°15'1113.6
2017-Mar-15 22:33N 27°50' W 015°13'1414.0
2017-Mar-15 21:33N 28°03' W 015°19'4 3.7
2017-Mar-15 20:33N 28°07' W 015°21'1 1.1
2017-Mar-15 19:33N 28°08' W 015°21'1010.3
2017-Mar-15 18:33N 28°18' W 015°18'1313.3
2017-Mar-15 17:33N 28°31' W 015°15'1313.1
2017-Mar-15 16:33N 28°43' W 015°11'1313.4
2017-Mar-15 15:33N 28°56' W 015°07'  
2017-Mar-11 14:10N 48°32' W 006°06'711.0
2017-Mar-11 13:33N 48°38' W 006°01'1211.4
2017-Mar-11 12:31N 48°49' W 005°52'1212.0
2017-Mar-11 11:33N 48°57' W 005°40'1512.7
2017-Mar-11 10:22N 49°05' W 005°21'911.2
2017-Mar-11 09:33N 49°09' W 005°08'1514.4
2017-Mar-11 08:29N 49°17' W 004°48'1413.8
2017-Mar-11 07:29N 49°23' W 004°29'2612.4
2017-Mar-11 05:25N 49°36' W 003°55'1011.6
2017-Mar-11 04:33N 49°41' W 003°41'1212.0
2017-Mar-11 03:33N 49°47' W 003°25'1312.9
2017-Mar-11 02:33N 49°53' W 003°08'1414.1
2017-Mar-11 01:34N 49°60' W 002°49'1715.7
2017-Mar-11 00:28N 50°04' W 002°23'1516.1
2017-Mar-10 23:33N 50°08' W 002°01'1515.0
2017-Mar-10 22:32N 50°12' W 001°38'1313.4
2017-Mar-10 21:33N 50°15' W 001°18'1311.6
2017-Mar-10 20:25N 50°19' W 000°58'1010.4
2017-Mar-10 19:26N 50°21' W 000°42'2110.9
2017-Mar-10 17:32N 50°28' W 000°11'1312.7
2017-Mar-10 16:31N 50°31' E 000°08'1414.1
2017-Mar-10 15:33N 50°35' E 000°28'1414.2
2017-Mar-10 14:33N 50°43' E 000°48'1413.8
2017-Mar-10 13:31N 50°51' E 001°06'1412.5
2017-Mar-10 12:24N 51°01' E 001°22'911.1
2017-Mar-10 11:33N 51°07' E 001°33'1110.7
2017-Mar-10 10:33N 51°14' E 001°46'1111.5
2017-Mar-10 09:33N 51°24' E 001°54'1212.0
2017-Mar-10 08:33N 51°34' E 002°06'1414.0
2017-Mar-10 07:33N 51°44' E 002°21'  

Dump ship's entire track history